sensor_id;sensor_type;location;lat;lon;timestamp;P1;durP1;ratioP1;P2;durP2;ratioP2
77544;SDS011;66672;50.328;7.610;2024-03-02T00:01:57;14.90;;;14.00;;
77544;SDS011;66672;50.328;7.610;2024-03-02T00:04:23;15.30;;;14.30;;
77544;SDS011;66672;50.328;7.610;2024-03-02T00:06:50;15.18;;;14.23;;
77544;SDS011;66672;50.328;7.610;2024-03-02T00:09:16;15.40;;;14.30;;
77544;SDS011;66672;50.328;7.610;2024-03-02T00:11:41;14.90;;;14.00;;
77544;SDS011;66672;50.328;7.610;2024-03-02T00:14:06;15.15;;;14.23;;
77544;SDS011;66672;50.328;7.610;2024-03-02T00:16:31;14.75;;;13.90;;
77544;SDS011;66672;50.328;7.610;2024-03-02T00:19:01;14.80;;;14.00;;
77544;SDS011;66672;50.328;7.610;2024-03-02T00:21:26;15.18;;;14.27;;
77544;SDS011;66672;50.328;7.610;2024-03-02T00:23:52;15.10;;;14.10;;
77544;SDS011;66672;50.328;7.610;2024-03-02T00:26:18;15.18;;;14.18;;
77544;SDS011;66672;50.328;7.610;2024-03-02T00:28:43;14.82;;;13.95;;
77544;SDS011;66672;50.328;7.610;2024-03-02T00:31:11;15.20;;;14.30;;
77544;SDS011;66672;50.328;7.610;2024-03-02T00:36:05;15.43;;;14.40;;
77544;SDS011;66672;50.328;7.610;2024-03-02T00:38:31;15.15;;;14.25;;
77544;SDS011;66672;50.328;7.610;2024-03-02T00:40:58;15.00;;;14.10;;
77544;SDS011;66672;50.328;7.610;2024-03-02T00:45:48;14.92;;;14.02;;
77544;SDS011;66672;50.328;7.610;2024-03-02T00:48:15;15.30;;;14.30;;
77544;SDS011;66672;50.328;7.610;2024-03-02T00:50:40;15.07;;;14.18;;
77544;SDS011;66672;50.328;7.610;2024-03-02T00:53:08;14.60;;;13.80;;
77544;SDS011;66672;50.328;7.610;2024-03-02T00:55:36;14.73;;;13.82;;
77544;SDS011;66672;50.328;7.610;2024-03-02T00:58:02;14.90;;;14.10;;
77544;SDS011;66672;50.328;7.610;2024-03-02T01:00:27;14.88;;;13.98;;
77544;SDS011;66672;50.328;7.610;2024-03-02T01:02:52;15.07;;;14.18;;
77544;SDS011;66672;50.328;7.610;2024-03-02T01:05:17;14.70;;;13.82;;
77544;SDS011;66672;50.328;7.610;2024-03-02T01:07:42;14.77;;;13.88;;
77544;SDS011;66672;50.328;7.610;2024-03-02T01:10:08;15.15;;;14.25;;
77544;SDS011;66672;50.328;7.610;2024-03-02T01:12:34;15.05;;;14.15;;
77544;SDS011;66672;50.328;7.610;2024-03-02T01:15:00;14.85;;;13.95;;
77544;SDS011;66672;50.328;7.610;2024-03-02T01:17:25;14.77;;;13.88;;
77544;SDS011;66672;50.328;7.610;2024-03-02T01:19:50;15.05;;;14.20;;
77544;SDS011;66672;50.328;7.610;2024-03-02T01:22:15;14.80;;;13.90;;
77544;SDS011;66672;50.328;7.610;2024-03-02T01:24:40;14.68;;;13.88;;
77544;SDS011;66672;50.328;7.610;2024-03-02T01:27:06;14.90;;;14.00;;
77544;SDS011;66672;50.328;7.610;2024-03-02T01:29:31;14.65;;;13.85;;
77544;SDS011;66672;50.328;7.610;2024-03-02T01:31:56;14.80;;;13.90;;
77544;SDS011;66672;50.328;7.610;2024-03-02T01:34:21;14.90;;;14.10;;
77544;SDS011;66672;50.328;7.610;2024-03-02T01:36:46;14.95;;;13.98;;
77544;SDS011;66672;50.328;7.610;2024-03-02T01:39:11;14.73;;;13.82;;
77544;SDS011;66672;50.328;7.610;2024-03-02T01:41:37;14.93;;;13.90;;
77544;SDS011;66672;50.328;7.610;2024-03-02T01:44:02;15.20;;;14.30;;
77544;SDS011;66672;50.328;7.610;2024-03-02T01:46:27;15.75;;;14.65;;
77544;SDS011;66672;50.328;7.610;2024-03-02T01:48:52;15.60;;;14.60;;
77544;SDS011;66672;50.328;7.610;2024-03-02T01:51:17;16.30;;;15.30;;
77544;SDS011;66672;50.328;7.610;2024-03-02T01:53:42;15.70;;;14.73;;
77544;SDS011;66672;50.328;7.610;2024-03-02T01:56:08;15.55;;;14.57;;
77544;SDS011;66672;50.328;7.610;2024-03-02T01:58:33;15.60;;;14.60;;
77544;SDS011;66672;50.328;7.610;2024-03-02T02:00:58;16.05;;;15.05;;
77544;SDS011;66672;50.328;7.610;2024-03-02T02:03:24;15.68;;;14.68;;
77544;SDS011;66672;50.328;7.610;2024-03-02T02:05:50;15.77;;;14.88;;
77544;SDS011;66672;50.328;7.610;2024-03-02T02:08:15;16.13;;;15.02;;
77544;SDS011;66672;50.328;7.610;2024-03-02T02:10:40;15.55;;;14.57;;
77544;SDS011;66672;50.328;7.610;2024-03-02T02:13:05;15.68;;;14.68;;
77544;SDS011;66672;50.328;7.610;2024-03-02T02:15:32;15.77;;;14.77;;
77544;SDS011;66672;50.328;7.610;2024-03-02T02:17:59;15.88;;;14.98;;
77544;SDS011;66672;50.328;7.610;2024-03-02T02:20:25;15.32;;;14.30;;
77544;SDS011;66672;50.328;7.610;2024-03-02T02:22:57;15.48;;;14.57;;
77544;SDS011;66672;50.328;7.610;2024-03-02T02:25:22;15.50;;;14.52;;
77544;SDS011;66672;50.328;7.610;2024-03-02T02:27:47;16.20;;;15.10;;
77544;SDS011;66672;50.328;7.610;2024-03-02T02:30:18;15.90;;;14.90;;
77544;SDS011;66672;50.328;7.610;2024-03-02T02:32:43;15.77;;;14.77;;
77544;SDS011;66672;50.328;7.610;2024-03-02T02:35:08;15.75;;;14.75;;
77544;SDS011;66672;50.328;7.610;2024-03-02T02:37:33;15.57;;;14.57;;
77544;SDS011;66672;50.328;7.610;2024-03-02T02:39:59;15.40;;;14.50;;
77544;SDS011;66672;50.328;7.610;2024-03-02T02:42:24;16.23;;;15.00;;
77544;SDS011;66672;50.328;7.610;2024-03-02T02:44:49;15.68;;;14.68;;
77544;SDS011;66672;50.328;7.610;2024-03-02T02:47:14;15.32;;;14.43;;
77544;SDS011;66672;50.328;7.610;2024-03-02T02:49:39;16.45;;;15.25;;
77544;SDS011;66672;50.328;7.610;2024-03-02T02:52:04;15.90;;;14.90;;
77544;SDS011;66672;50.328;7.610;2024-03-02T02:54:30;15.93;;;14.82;;
77544;SDS011;66672;50.328;7.610;2024-03-02T02:56:55;16.05;;;14.88;;
77544;SDS011;66672;50.328;7.610;2024-03-02T02:59:20;16.17;;;14.95;;
77544;SDS011;66672;50.328;7.610;2024-03-02T03:01:45;16.13;;;15.10;;
77544;SDS011;66672;50.328;7.610;2024-03-02T03:04:11;15.98;;;14.98;;
77544;SDS011;66672;50.328;7.610;2024-03-02T03:06:37;15.95;;;15.05;;
77544;SDS011;66672;50.328;7.610;2024-03-02T03:09:02;15.80;;;14.80;;
77544;SDS011;66672;50.328;7.610;2024-03-02T03:11:27;15.88;;;14.88;;
77544;SDS011;66672;50.328;7.610;2024-03-02T03:13:53;16.55;;;15.38;;
77544;SDS011;66672;50.328;7.610;2024-03-02T03:16:19;16.27;;;15.18;;
77544;SDS011;66672;50.328;7.610;2024-03-02T03:18:44;16.20;;;15.10;;
77544;SDS011;66672;50.328;7.610;2024-03-02T03:21:09;16.73;;;15.63;;
77544;SDS011;66672;50.328;7.610;2024-03-02T03:23:34;16.75;;;15.60;;
77544;SDS011;66672;50.328;7.610;2024-03-02T03:26:00;16.52;;;15.43;;
77544;SDS011;66672;50.328;7.610;2024-03-02T03:28:25;17.13;;;15.93;;
77544;SDS011;66672;50.328;7.610;2024-03-02T03:30:51;17.10;;;15.95;;
77544;SDS011;66672;50.328;7.610;2024-03-02T03:33:16;18.13;;;16.63;;
77544;SDS011;66672;50.328;7.610;2024-03-02T03:35:41;18.00;;;16.70;;
77544;SDS011;66672;50.328;7.610;2024-03-02T03:38:06;18.00;;;16.63;;
77544;SDS011;66672;50.328;7.610;2024-03-02T03:40:31;18.85;;;17.40;;
77544;SDS011;66672;50.328;7.610;2024-03-02T03:42:57;18.42;;;17.02;;
77544;SDS011;66672;50.328;7.610;2024-03-02T03:45:22;18.02;;;16.70;;
77544;SDS011;66672;50.328;7.610;2024-03-02T03:47:47;18.65;;;17.33;;
77544;SDS011;66672;50.328;7.610;2024-03-02T03:50:12;18.73;;;17.38;;
77544;SDS011;66672;50.328;7.610;2024-03-02T03:52:38;18.95;;;17.55;;
77544;SDS011;66672;50.328;7.610;2024-03-02T03:55:03;19.90;;;18.17;;
77544;SDS011;66672;50.328;7.610;2024-03-02T03:57:30;18.73;;;17.40;;
77544;SDS011;66672;50.328;7.610;2024-03-02T03:59:55;19.60;;;18.08;;
77544;SDS011;66672;50.328;7.610;2024-03-02T04:02:20;17.98;;;16.48;;
77544;SDS011;66672;50.328;7.610;2024-03-02T04:04:45;19.30;;;17.80;;
77544;SDS011;66672;50.328;7.610;2024-03-02T04:07:11;20.10;;;18.38;;
77544;SDS011;66672;50.328;7.610;2024-03-02T04:09:36;19.13;;;17.63;;
77544;SDS011;66672;50.328;7.610;2024-03-02T04:12:01;18.65;;;17.25;;
77544;SDS011;66672;50.328;7.610;2024-03-02T04:14:26;19.15;;;17.60;;
77544;SDS011;66672;50.328;7.610;2024-03-02T04:16:52;18.45;;;17.05;;
77544;SDS011;66672;50.328;7.610;2024-03-02T04:19:17;18.65;;;17.30;;
77544;SDS011;66672;50.328;7.610;2024-03-02T04:21:42;18.00;;;16.63;;
77544;SDS011;66672;50.328;7.610;2024-03-02T04:24:07;18.42;;;17.02;;
77544;SDS011;66672;50.328;7.610;2024-03-02T04:26:33;18.48;;;17.17;;
77544;SDS011;66672;50.328;7.610;2024-03-02T04:28:58;17.33;;;16.13;;
77544;SDS011;66672;50.328;7.610;2024-03-02T04:31:23;17.55;;;16.25;;
77544;SDS011;66672;50.328;7.610;2024-03-02T04:33:48;17.80;;;16.60;;
77544;SDS011;66672;50.328;7.610;2024-03-02T04:36:13;17.45;;;16.15;;
77544;SDS011;66672;50.328;7.610;2024-03-02T04:38:39;16.48;;;15.27;;
77544;SDS011;66672;50.328;7.610;2024-03-02T04:41:04;17.15;;;15.95;;
77544;SDS011;66672;50.328;7.610;2024-03-02T04:43:31;16.90;;;15.80;;
77544;SDS011;66672;50.328;7.610;2024-03-02T04:45:56;17.10;;;15.90;;
77544;SDS011;66672;50.328;7.610;2024-03-02T04:48:22;17.27;;;16.08;;
77544;SDS011;66672;50.328;7.610;2024-03-02T04:50:47;17.20;;;15.90;;
77544;SDS011;66672;50.328;7.610;2024-03-02T04:53:12;17.30;;;16.00;;
77544;SDS011;66672;50.328;7.610;2024-03-02T04:55:37;17.17;;;15.98;;
77544;SDS011;66672;50.328;7.610;2024-03-02T04:58:05;17.40;;;16.20;;
77544;SDS011;66672;50.328;7.610;2024-03-02T05:00:31;17.10;;;15.80;;
77544;SDS011;66672;50.328;7.610;2024-03-02T05:02:56;17.27;;;16.05;;
77544;SDS011;66672;50.328;7.610;2024-03-02T05:05:21;17.38;;;15.95;;
77544;SDS011;66672;50.328;7.610;2024-03-02T05:07:47;16.92;;;15.60;;
77544;SDS011;66672;50.328;7.610;2024-03-02T05:10:12;17.88;;;16.48;;
77544;SDS011;66672;50.328;7.610;2024-03-02T05:12:37;18.00;;;16.52;;
77544;SDS011;66672;50.328;7.610;2024-03-02T05:15:12;17.58;;;16.27;;
77544;SDS011;66672;50.328;7.610;2024-03-02T05:17:37;17.63;;;16.33;;
77544;SDS011;66672;50.328;7.610;2024-03-02T05:20:03;17.65;;;16.25;;
77544;SDS011;66672;50.328;7.610;2024-03-02T05:22:28;17.15;;;15.95;;
77544;SDS011;66672;50.328;7.610;2024-03-02T05:24:54;17.95;;;16.75;;
77544;SDS011;66672;50.328;7.610;2024-03-02T05:27:19;17.65;;;16.35;;
77544;SDS011;66672;50.328;7.610;2024-03-02T05:29:44;18.60;;;17.20;;
77544;SDS011;66672;50.328;7.610;2024-03-02T05:32:09;18.15;;;16.85;;
77544;SDS011;66672;50.328;7.610;2024-03-02T05:34:34;18.88;;;17.23;;
77544;SDS011;66672;50.328;7.610;2024-03-02T05:37:00;18.23;;;16.92;;
77544;SDS011;66672;50.328;7.610;2024-03-02T05:39:25;22.52;;;20.17;;
77544;SDS011;66672;50.328;7.610;2024-03-02T05:41:51;18.40;;;17.08;;
77544;SDS011;66672;50.328;7.610;2024-03-02T05:44:16;18.27;;;16.80;;
77544;SDS011;66672;50.328;7.610;2024-03-02T05:46:41;18.25;;;16.80;;
77544;SDS011;66672;50.328;7.610;2024-03-02T05:49:07;18.08;;;16.60;;
77544;SDS011;66672;50.328;7.610;2024-03-02T05:51:33;19.10;;;17.23;;
77544;SDS011;66672;50.328;7.610;2024-03-02T05:53:58;20.25;;;18.58;;
77544;SDS011;66672;50.328;7.610;2024-03-02T05:56:23;20.75;;;18.85;;
77544;SDS011;66672;50.328;7.610;2024-03-02T05:58:48;19.17;;;17.73;;
77544;SDS011;66672;50.328;7.610;2024-03-02T06:03:57;18.17;;;16.83;;
77544;SDS011;66672;50.328;7.610;2024-03-02T06:06:23;18.42;;;17.13;;
77544;SDS011;66672;50.328;7.610;2024-03-02T06:08:48;18.25;;;16.80;;
77544;SDS011;66672;50.328;7.610;2024-03-02T06:11:14;18.73;;;17.30;;
77544;SDS011;66672;50.328;7.610;2024-03-02T06:13:39;17.73;;;16.42;;
77544;SDS011;66672;50.328;7.610;2024-03-02T06:16:04;18.58;;;17.17;;
77544;SDS011;66672;50.328;7.610;2024-03-02T06:18:29;18.13;;;16.80;;
77544;SDS011;66672;50.328;7.610;2024-03-02T06:20:55;17.52;;;16.33;;
77544;SDS011;66672;50.328;7.610;2024-03-02T06:23:20;17.90;;;16.40;;
77544;SDS011;66672;50.328;7.610;2024-03-02T06:25:45;17.70;;;16.40;;
77544;SDS011;66672;50.328;7.610;2024-03-02T06:28:10;23.38;;;20.95;;
77544;SDS011;66672;50.328;7.610;2024-03-02T06:30:35;18.33;;;16.92;;
77544;SDS011;66672;50.328;7.610;2024-03-02T06:33:00;24.00;;;20.55;;
77544;SDS011;66672;50.328;7.610;2024-03-02T06:35:26;18.73;;;17.23;;
77544;SDS011;66672;50.328;7.610;2024-03-02T06:37:51;18.92;;;17.25;;
77544;SDS011;66672;50.328;7.610;2024-03-02T06:40:16;18.13;;;16.73;;
77544;SDS011;66672;50.328;7.610;2024-03-02T06:42:41;17.10;;;15.80;;
77544;SDS011;66672;50.328;7.610;2024-03-02T06:45:07;17.65;;;16.17;;
77544;SDS011;66672;50.328;7.610;2024-03-02T06:47:32;17.33;;;15.93;;
77544;SDS011;66672;50.328;7.610;2024-03-02T06:49:58;17.60;;;16.25;;
77544;SDS011;66672;50.328;7.610;2024-03-02T06:52:23;16.88;;;15.68;;
77544;SDS011;66672;50.328;7.610;2024-03-02T06:54:48;17.77;;;16.38;;
77544;SDS011;66672;50.328;7.610;2024-03-02T06:57:14;17.35;;;16.05;;
77544;SDS011;66672;50.328;7.610;2024-03-02T06:59:39;20.27;;;18.30;;
77544;SDS011;66672;50.328;7.610;2024-03-02T07:02:04;39.58;;;26.65;;
77544;SDS011;66672;50.328;7.610;2024-03-02T07:04:29;46.75;;;31.85;;
77544;SDS011;66672;50.328;7.610;2024-03-02T07:06:54;23.67;;;21.17;;
77544;SDS011;66672;50.328;7.610;2024-03-02T07:09:20;19.27;;;17.67;;
77544;SDS011;66672;50.328;7.610;2024-03-02T07:11:47;18.20;;;16.88;;
77544;SDS011;66672;50.328;7.610;2024-03-02T07:14:13;17.80;;;16.30;;
77544;SDS011;66672;50.328;7.610;2024-03-02T07:16:38;17.35;;;16.05;;
77544;SDS011;66672;50.328;7.610;2024-03-02T07:19:04;17.65;;;15.95;;
77544;SDS011;66672;50.328;7.610;2024-03-02T07:21:30;17.58;;;16.17;;
77544;SDS011;66672;50.328;7.610;2024-03-02T07:23:55;17.95;;;16.60;;
77544;SDS011;66672;50.328;7.610;2024-03-02T07:26:20;18.20;;;16.77;;
77544;SDS011;66672;50.328;7.610;2024-03-02T07:28:45;17.85;;;16.58;;
77544;SDS011;66672;50.328;7.610;2024-03-02T07:31:11;17.75;;;16.45;;
77544;SDS011;66672;50.328;7.610;2024-03-02T07:33:36;18.75;;;17.27;;
77544;SDS011;66672;50.328;7.610;2024-03-02T07:36:01;18.75;;;17.35;;
77544;SDS011;66672;50.328;7.610;2024-03-02T07:38:27;18.17;;;16.73;;
77544;SDS011;66672;50.328;7.610;2024-03-02T07:40:53;17.80;;;16.60;;
77544;SDS011;66672;50.328;7.610;2024-03-02T07:43:18;18.42;;;16.88;;
77544;SDS011;66672;50.328;7.610;2024-03-02T07:45:44;18.30;;;17.00;;
77544;SDS011;66672;50.328;7.610;2024-03-02T07:48:09;18.50;;;16.95;;
77544;SDS011;66672;50.328;7.610;2024-03-02T07:50:34;17.88;;;16.58;;
77544;SDS011;66672;50.328;7.610;2024-03-02T07:53:03;17.50;;;16.10;;
77544;SDS011;66672;50.328;7.610;2024-03-02T07:55:29;18.15;;;16.75;;
77544;SDS011;66672;50.328;7.610;2024-03-02T07:57:54;19.15;;;17.65;;
77544;SDS011;66672;50.328;7.610;2024-03-02T08:00:19;18.67;;;17.13;;
77544;SDS011;66672;50.328;7.610;2024-03-02T08:02:45;18.88;;;17.38;;
77544;SDS011;66672;50.328;7.610;2024-03-02T08:05:10;18.35;;;16.85;;
77544;SDS011;66672;50.328;7.610;2024-03-02T08:07:35;18.10;;;16.55;;
77544;SDS011;66672;50.328;7.610;2024-03-02T08:10:00;17.85;;;16.35;;
77544;SDS011;66672;50.328;7.610;2024-03-02T08:12:26;18.33;;;16.85;;
77544;SDS011;66672;50.328;7.610;2024-03-02T08:14:51;18.13;;;16.75;;
77544;SDS011;66672;50.328;7.610;2024-03-02T08:17:16;19.38;;;17.83;;
77544;SDS011;66672;50.328;7.610;2024-03-02T08:19:42;17.33;;;15.93;;
77544;SDS011;66672;50.328;7.610;2024-03-02T08:22:07;17.42;;;16.23;;
77544;SDS011;66672;50.328;7.610;2024-03-02T08:24:32;17.33;;;16.13;;
77544;SDS011;66672;50.328;7.610;2024-03-02T08:26:58;17.30;;;16.10;;
77544;SDS011;66672;50.328;7.610;2024-03-02T08:29:24;19.98;;;18.23;;
77544;SDS011;66672;50.328;7.610;2024-03-02T08:31:49;17.60;;;16.20;;
77544;SDS011;66672;50.328;7.610;2024-03-02T08:34:14;17.72;;;16.52;;
77544;SDS011;66672;50.328;7.610;2024-03-02T08:36:39;17.27;;;16.05;;
77544;SDS011;66672;50.328;7.610;2024-03-02T08:39:05;16.40;;;15.30;;
77544;SDS011;66672;50.328;7.610;2024-03-02T08:41:32;16.48;;;15.25;;
77544;SDS011;66672;50.328;7.610;2024-03-02T08:43:57;16.83;;;15.63;;
77544;SDS011;66672;50.328;7.610;2024-03-02T08:46:22;16.13;;;15.13;;
77544;SDS011;66672;50.328;7.610;2024-03-02T08:48:48;16.40;;;15.25;;
77544;SDS011;66672;50.328;7.610;2024-03-02T08:51:13;16.15;;;15.05;;
77544;SDS011;66672;50.328;7.610;2024-03-02T08:53:38;16.52;;;15.27;;
77544;SDS011;66672;50.328;7.610;2024-03-02T08:56:03;16.42;;;15.20;;
77544;SDS011;66672;50.328;7.610;2024-03-02T08:58:30;16.08;;;15.07;;
77544;SDS011;66672;50.328;7.610;2024-03-02T09:00:55;16.00;;;14.98;;
77544;SDS011;66672;50.328;7.610;2024-03-02T09:03:20;16.80;;;15.45;;
77544;SDS011;66672;50.328;7.610;2024-03-02T09:05:45;15.75;;;14.65;;
77544;SDS011;66672;50.328;7.610;2024-03-02T09:08:11;15.98;;;14.88;;
77544;SDS011;66672;50.328;7.610;2024-03-02T09:10:37;16.20;;;15.10;;
77544;SDS011;66672;50.328;7.610;2024-03-02T09:13:04;15.52;;;14.43;;
77544;SDS011;66672;50.328;7.610;2024-03-02T09:15:29;15.90;;;14.75;;
77544;SDS011;66672;50.328;7.610;2024-03-02T09:17:54;15.88;;;14.88;;
77544;SDS011;66672;50.328;7.610;2024-03-02T09:20:20;15.65;;;14.55;;
77544;SDS011;66672;50.328;7.610;2024-03-02T09:22:45;15.38;;;14.38;;
77544;SDS011;66672;50.328;7.610;2024-03-02T09:25:12;15.55;;;14.35;;
77544;SDS011;66672;50.328;7.610;2024-03-02T09:27:37;15.23;;;14.23;;
77544;SDS011;66672;50.328;7.610;2024-03-02T09:30:04;15.63;;;14.60;;
77544;SDS011;66672;50.328;7.610;2024-03-02T09:32:30;15.48;;;14.48;;
77544;SDS011;66672;50.328;7.610;2024-03-02T09:34:55;15.32;;;14.27;;
77544;SDS011;66672;50.328;7.610;2024-03-02T09:37:21;15.18;;;14.25;;
77544;SDS011;66672;50.328;7.610;2024-03-02T09:39:46;15.75;;;14.70;;
77544;SDS011;66672;50.328;7.610;2024-03-02T09:42:11;15.60;;;14.50;;
77544;SDS011;66672;50.328;7.610;2024-03-02T09:44:37;15.27;;;14.27;;
77544;SDS011;66672;50.328;7.610;2024-03-02T09:47:02;15.10;;;14.10;;
77544;SDS011;66672;50.328;7.610;2024-03-02T09:49:27;15.15;;;14.25;;
77544;SDS011;66672;50.328;7.610;2024-03-02T09:51:52;15.60;;;14.50;;
77544;SDS011;66672;50.328;7.610;2024-03-02T09:54:18;15.35;;;14.35;;
77544;SDS011;66672;50.328;7.610;2024-03-02T09:56:44;15.77;;;14.68;;
77544;SDS011;66672;50.328;7.610;2024-03-02T09:59:09;15.82;;;14.73;;
77544;SDS011;66672;50.328;7.610;2024-03-02T10:01:34;15.52;;;14.52;;
77544;SDS011;66672;50.328;7.610;2024-03-02T10:03:59;15.45;;;14.45;;
77544;SDS011;66672;50.328;7.610;2024-03-02T10:06:25;15.63;;;14.52;;
77544;SDS011;66672;50.328;7.610;2024-03-02T10:08:51;15.45;;;14.50;;
77544;SDS011;66672;50.328;7.610;2024-03-02T10:13:57;15.85;;;14.75;;
77544;SDS011;66672;50.328;7.610;2024-03-02T10:16:28;16.20;;;15.10;;
77544;SDS011;66672;50.328;7.610;2024-03-02T10:18:53;16.23;;;15.02;;
77544;SDS011;66672;50.328;7.610;2024-03-02T10:21:19;16.10;;;14.90;;
77544;SDS011;66672;50.328;7.610;2024-03-02T10:23:44;15.30;;;14.40;;
77544;SDS011;66672;50.328;7.610;2024-03-02T10:26:18;15.57;;;14.57;;
77544;SDS011;66672;50.328;7.610;2024-03-02T10:28:47;14.90;;;14.00;;
77544;SDS011;66672;50.328;7.610;2024-03-02T10:33:42;15.18;;;14.18;;
77544;SDS011;66672;50.328;7.610;2024-03-02T10:36:07;15.70;;;14.60;;
77544;SDS011;66672;50.328;7.610;2024-03-02T10:38:32;15.50;;;14.40;;
77544;SDS011;66672;50.328;7.610;2024-03-02T10:40:58;15.60;;;14.60;;
77544;SDS011;66672;50.328;7.610;2024-03-02T10:43:26;15.57;;;14.38;;
77544;SDS011;66672;50.328;7.610;2024-03-02T10:45:51;15.63;;;14.65;;
77544;SDS011;66672;50.328;7.610;2024-03-02T10:48:17;15.70;;;14.70;;
77544;SDS011;66672;50.328;7.610;2024-03-02T10:50:42;15.65;;;14.40;;
77544;SDS011;66672;50.328;7.610;2024-03-02T10:53:08;15.65;;;14.65;;
77544;SDS011;66672;50.328;7.610;2024-03-02T10:55:33;15.68;;;14.68;;
77544;SDS011;66672;50.328;7.610;2024-03-02T10:57:58;15.85;;;14.75;;
77544;SDS011;66672;50.328;7.610;2024-03-02T11:00:26;15.63;;;14.52;;
77544;SDS011;66672;50.328;7.610;2024-03-02T11:03:00;15.82;;;14.82;;
77544;SDS011;66672;50.328;7.610;2024-03-02T11:05:27;15.98;;;14.70;;
77544;SDS011;66672;50.328;7.610;2024-03-02T11:07:56;15.35;;;14.27;;
77544;SDS011;66672;50.328;7.610;2024-03-02T11:10:21;15.30;;;14.30;;
77544;SDS011;66672;50.328;7.610;2024-03-02T11:15:14;15.45;;;14.30;;
77544;SDS011;66672;50.328;7.610;2024-03-02T11:17:42;15.40;;;14.50;;
77544;SDS011;66672;50.328;7.610;2024-03-02T11:20:08;14.75;;;13.85;;
77544;SDS011;66672;50.328;7.610;2024-03-02T11:22:34;16.02;;;14.77;;
77544;SDS011;66672;50.328;7.610;2024-03-02T11:25:00;14.98;;;14.07;;
77544;SDS011;66672;50.328;7.610;2024-03-02T11:30:10;14.88;;;13.88;;
77544;SDS011;66672;50.328;7.610;2024-03-02T11:32:55;14.55;;;13.68;;
77544;SDS011;66672;50.328;7.610;2024-03-02T11:35:20;15.00;;;14.10;;
77544;SDS011;66672;50.328;7.610;2024-03-02T11:37:46;15.02;;;14.13;;
77544;SDS011;66672;50.328;7.610;2024-03-02T11:40:11;15.63;;;14.55;;
77544;SDS011;66672;50.328;7.610;2024-03-02T11:42:36;15.00;;;14.10;;
77544;SDS011;66672;50.328;7.610;2024-03-02T11:45:02;14.70;;;13.70;;
77544;SDS011;66672;50.328;7.610;2024-03-02T11:47:28;14.50;;;13.65;;
77544;SDS011;66672;50.328;7.610;2024-03-02T11:49:56;14.90;;;14.00;;
77544;SDS011;66672;50.328;7.610;2024-03-02T11:52:21;14.55;;;13.75;;
77544;SDS011;66672;50.328;7.610;2024-03-02T11:54:47;15.00;;;13.90;;
77544;SDS011;66672;50.328;7.610;2024-03-02T11:57:19;15.02;;;14.02;;
77544;SDS011;66672;50.328;7.610;2024-03-02T11:59:45;14.95;;;13.85;;
77544;SDS011;66672;50.328;7.610;2024-03-02T12:02:20;14.23;;;13.43;;
77544;SDS011;66672;50.328;7.610;2024-03-02T12:04:45;14.77;;;13.88;;
77544;SDS011;66672;50.328;7.610;2024-03-02T12:07:11;15.90;;;14.90;;
77544;SDS011;66672;50.328;7.610;2024-03-02T12:09:37;15.00;;;14.00;;
77544;SDS011;66672;50.328;7.610;2024-03-02T12:14:29;15.55;;;14.55;;
77544;SDS011;66672;50.328;7.610;2024-03-02T12:16:54;14.70;;;13.80;;
77544;SDS011;66672;50.328;7.610;2024-03-02T12:19:20;15.23;;;14.32;;
77544;SDS011;66672;50.328;7.610;2024-03-02T12:21:45;15.35;;;14.45;;
77544;SDS011;66672;50.328;7.610;2024-03-02T12:24:11;15.00;;;14.10;;
77544;SDS011;66672;50.328;7.610;2024-03-02T12:26:36;15.02;;;14.13;;
77544;SDS011;66672;50.328;7.610;2024-03-02T12:29:01;15.10;;;14.20;;
77544;SDS011;66672;50.328;7.610;2024-03-02T12:31:26;14.98;;;14.07;;
77544;SDS011;66672;50.328;7.610;2024-03-02T12:33:51;15.32;;;14.43;;
77544;SDS011;66672;50.328;7.610;2024-03-02T12:36:17;15.27;;;14.27;;
77544;SDS011;66672;50.328;7.610;2024-03-02T12:38:45;15.05;;;14.20;;
77544;SDS011;66672;50.328;7.610;2024-03-02T12:41:14;15.30;;;14.40;;
77544;SDS011;66672;50.328;7.610;2024-03-02T12:43:39;15.20;;;14.30;;
77544;SDS011;66672;50.328;7.610;2024-03-02T12:46:04;15.13;;;14.30;;
77544;SDS011;66672;50.328;7.610;2024-03-02T12:48:29;15.10;;;14.20;;
77544;SDS011;66672;50.328;7.610;2024-03-02T12:50:55;15.30;;;14.30;;
77544;SDS011;66672;50.328;7.610;2024-03-02T12:53:21;15.30;;;14.30;;
77544;SDS011;66672;50.328;7.610;2024-03-02T12:55:46;15.15;;;14.25;;
77544;SDS011;66672;50.328;7.610;2024-03-02T12:58:18;15.10;;;14.20;;
77544;SDS011;66672;50.328;7.610;2024-03-02T13:00:44;14.80;;;13.90;;
77544;SDS011;66672;50.328;7.610;2024-03-02T13:03:09;14.93;;;13.98;;
77544;SDS011;66672;50.328;7.610;2024-03-02T13:05:34;14.53;;;13.67;;
77544;SDS011;66672;50.328;7.610;2024-03-02T13:08:00;14.90;;;13.90;;
77544;SDS011;66672;50.328;7.610;2024-03-02T13:10:26;14.55;;;13.75;;
77544;SDS011;66672;50.328;7.610;2024-03-02T13:12:51;14.90;;;14.00;;
77544;SDS011;66672;50.328;7.610;2024-03-02T13:15:16;14.70;;;13.90;;
77544;SDS011;66672;50.328;7.610;2024-03-02T13:17:41;14.48;;;13.68;;
77544;SDS011;66672;50.328;7.610;2024-03-02T13:20:07;14.20;;;13.40;;
77544;SDS011;66672;50.328;7.610;2024-03-02T13:22:36;14.50;;;13.70;;
77544;SDS011;66672;50.328;7.610;2024-03-02T13:25:01;14.10;;;13.30;;
77544;SDS011;66672;50.328;7.610;2024-03-02T13:27:28;13.82;;;13.07;;
77544;SDS011;66672;50.328;7.610;2024-03-02T13:29:54;14.38;;;13.57;;
77544;SDS011;66672;50.328;7.610;2024-03-02T13:32:19;14.43;;;13.52;;
77544;SDS011;66672;50.328;7.610;2024-03-02T13:34:48;14.52;;;13.73;;
77544;SDS011;66672;50.328;7.610;2024-03-02T13:37:14;14.57;;;13.68;;
77544;SDS011;66672;50.328;7.610;2024-03-02T13:39:39;14.20;;;13.40;;
77544;SDS011;66672;50.328;7.610;2024-03-02T13:42:07;14.00;;;13.10;;
77544;SDS011;66672;50.328;7.610;2024-03-02T13:44:33;14.52;;;13.63;;
77544;SDS011;66672;50.328;7.610;2024-03-02T13:46:59;14.55;;;13.65;;
77544;SDS011;66672;50.328;7.610;2024-03-02T13:49:24;14.25;;;13.45;;
77544;SDS011;66672;50.328;7.610;2024-03-02T13:51:53;15.07;;;14.18;;
77544;SDS011;66672;50.328;7.610;2024-03-02T13:54:20;14.90;;;14.10;;
77544;SDS011;66672;50.328;7.610;2024-03-02T13:56:45;14.80;;;13.90;;
77544;SDS011;66672;50.328;7.610;2024-03-02T13:59:11;14.52;;;13.73;;
77544;SDS011;66672;50.328;7.610;2024-03-02T14:01:36;14.82;;;13.98;;
77544;SDS011;66672;50.328;7.610;2024-03-02T14:04:02;14.75;;;13.85;;
77544;SDS011;66672;50.328;7.610;2024-03-02T14:06:27;14.80;;;14.00;;
77544;SDS011;66672;50.328;7.610;2024-03-02T14:08:52;14.50;;;13.70;;
77544;SDS011;66672;50.328;7.610;2024-03-02T14:11:18;14.50;;;13.70;;
77544;SDS011;66672;50.328;7.610;2024-03-02T14:13:43;14.32;;;13.50;;
77544;SDS011;66672;50.328;7.610;2024-03-02T14:16:11;14.98;;;14.07;;
77544;SDS011;66672;50.328;7.610;2024-03-02T14:18:37;14.85;;;13.95;;
77544;SDS011;66672;50.328;7.610;2024-03-02T14:21:02;14.50;;;13.70;;
77544;SDS011;66672;50.328;7.610;2024-03-02T14:23:28;14.68;;;13.73;;
77544;SDS011;66672;50.328;7.610;2024-03-02T14:25:54;14.82;;;13.93;;
77544;SDS011;66672;50.328;7.610;2024-03-02T14:28:19;14.68;;;13.77;;
77544;SDS011;66672;50.328;7.610;2024-03-02T14:30:45;15.15;;;14.15;;
77544;SDS011;66672;50.328;7.610;2024-03-02T14:33:10;15.55;;;14.55;;